createdAt,value
2018-06-14T00:01:32.474Z,56.48
2018-06-14T00:04:00.118Z,58.55
2018-06-14T00:06:27.777Z,58.53
2018-06-14T00:08:55.423Z,58.58
2018-06-14T00:11:23.301Z,58.54
2018-06-14T00:13:50.976Z,57.39
2018-06-14T00:16:18.637Z,58.88
2018-06-14T00:18:46.301Z,59.64
2018-06-14T00:21:13.993Z,58.63
2018-06-14T00:23:41.637Z,58.40
2018-06-14T00:26:09.297Z,57.67
2018-06-14T00:28:36.951Z,56.58
2018-06-14T00:31:04.608Z,55.47
2018-06-14T00:33:32.252Z,57.23
2018-06-14T00:35:59.947Z,56.21
2018-06-14T00:38:27.637Z,55.64
2018-06-14T00:40:55.302Z,55.88
2018-06-14T00:43:22.957Z,55.83
2018-06-14T00:45:50.645Z,55.82
2018-06-14T00:48:18.313Z,55.82
2018-06-14T00:50:46.005Z,59.42
2018-06-14T00:53:13.677Z,59.95
2018-06-14T00:55:41.361Z,59.06
2018-06-14T00:58:09.021Z,59.11
2018-06-14T01:00:36.701Z,59.19
2018-06-14T01:03:04.372Z,60.10
2018-06-14T01:05:32.085Z,59.21
2018-06-14T01:07:59.769Z,59.48
2018-06-14T01:10:27.417Z,60.59
2018-06-14T01:12:55.098Z,59.50
2018-06-14T01:15:22.749Z,59.97
2018-06-14T01:17:50.405Z,60.63
2018-06-14T01:20:18.175Z,60.97
2018-06-14T01:22:45.842Z,60.89
2018-06-14T01:25:13.551Z,60.70
2018-06-14T01:27:41.413Z,60.51
2018-06-14T01:30:09.158Z,61.59
2018-06-14T01:32:36.810Z,61.17
2018-06-14T01:35:04.695Z,62.27
2018-06-14T01:37:43.630Z,62.53
2018-06-14T01:40:11.329Z,62.38
2018-06-14T01:42:39.049Z,62.35
2018-06-14T01:45:06.734Z,62.38
2018-06-14T01:47:34.429Z,62.11
2018-06-14T01:50:02.349Z,61.31
2018-06-14T01:52:30.011Z,62.13
2018-06-14T01:54:57.734Z,61.33
2018-06-14T01:57:25.426Z,62.22
2018-06-14T01:59:53.081Z,61.96
2018-06-14T02:02:20.813Z,61.70
2018-06-14T02:04:48.528Z,61.09
2018-06-14T02:07:16.419Z,61.71
2018-06-14T02:09:44.129Z,61.11
2018-06-14T02:12:11.901Z,62.81
2018-06-14T02:14:39.701Z,61.45
2018-06-14T02:17:07.399Z,61.42
2018-06-14T02:19:35.070Z,61.68
2018-06-14T02:22:02.721Z,61.33
2018-06-14T02:24:30.505Z,62.17
2018-06-14T02:26:58.469Z,63.01
2018-06-14T02:29:26.140Z,61.70
2018-06-14T02:31:53.816Z,62.39
2018-06-14T02:34:21.477Z,62.33
2018-06-14T02:36:49.182Z,62.02
2018-06-14T02:39:17.104Z,61.74
2018-06-14T02:41:44.763Z,62.66
2018-06-14T02:44:12.485Z,63.42
2018-06-14T02:46:40.126Z,63.77
2018-06-14T02:49:07.778Z,63.03
2018-06-14T02:51:35.441Z,63.18
2018-06-14T02:54:03.290Z,64.42
2018-06-14T02:56:31.078Z,63.73
2018-06-14T02:58:58.938Z,63.40
2018-06-14T03:01:26.892Z,64.60
2018-06-14T03:03:54.776Z,65.75
2018-06-14T03:06:22.545Z,66.78
2018-06-14T03:08:50.906Z,65.22
2018-06-14T03:11:19.773Z,66.42
2018-06-14T03:13:47.887Z,66.48
2018-06-14T03:16:15.743Z,67.08
2018-06-14T03:18:44.128Z,66.06
2018-06-14T03:21:11.826Z,67.45
2018-06-14T03:23:39.674Z,67.02
2018-06-14T03:26:07.446Z,66.77
2018-06-14T03:28:35.157Z,66.17
2018-06-14T03:31:02.930Z,67.97
2018-06-14T03:33:30.589Z,66.55
2018-06-14T03:35:58.277Z,66.70
2018-06-14T03:38:26.293Z,65.64
2018-06-14T03:40:54.063Z,66.40
2018-06-14T03:43:21.770Z,65.59
2018-06-14T03:45:49.536Z,65.68
2018-06-14T03:48:17.227Z,66.22
2018-06-14T03:50:44.907Z,66.69
2018-06-14T03:53:12.626Z,66.51
2018-06-14T03:55:40.278Z,65.84
2018-06-14T03:58:08.003Z,65.67
2018-06-14T04:00:36.448Z,65.64
2018-06-14T04:03:04.118Z,65.53
2018-06-14T04:05:31.786Z,65.59
2018-06-14T04:07:59.746Z,65.17
2018-06-14T04:10:27.426Z,65.52
2018-06-14T04:12:55.105Z,65.16
2018-06-14T04:15:22.767Z,64.94
2018-06-14T04:17:57.377Z,64.90
2018-06-14T04:20:25.057Z,64.97
2018-06-14T04:22:52.722Z,64.78
2018-06-14T04:25:20.374Z,64.11
2018-06-14T04:27:48.120Z,64.46
2018-06-14T04:30:15.942Z,64.34
2018-06-14T04:32:43.589Z,64.07
2018-06-14T04:35:11.442Z,63.92
2018-06-14T04:37:39.081Z,63.38
2018-06-14T04:40:06.798Z,63.42
2018-06-14T04:42:34.750Z,63.91
2018-06-14T04:45:02.432Z,63.31
2018-06-14T04:47:30.138Z,63.29
2018-06-14T04:49:57.791Z,62.72
2018-06-14T04:52:25.439Z,63.16
2018-06-14T04:54:53.138Z,63.06
2018-06-14T04:57:20.826Z,63.68
2018-06-14T04:59:48.487Z,63.65
2018-06-14T05:02:16.144Z,63.37
2018-06-14T05:04:43.950Z,63.50
2018-06-14T05:07:11.658Z,63.04
2018-06-14T05:09:39.305Z,63.54
2018-06-14T05:12:07.045Z,64.19
2018-06-14T05:14:34.704Z,63.32
2018-06-14T05:17:02.430Z,62.88
2018-06-14T05:19:30.094Z,62.88
2018-06-14T05:21:57.836Z,62.56
2018-06-14T05:24:25.494Z,63.02
2018-06-14T05:26:53.178Z,62.88
2018-06-14T05:29:20.830Z,62.78
2018-06-14T05:31:48.514Z,62.85
2018-06-14T05:34:16.195Z,63.46
2018-06-14T05:36:43.856Z,63.18
2018-06-14T05:39:12.340Z,63.34
2018-06-14T05:41:40.445Z,63.69
2018-06-14T05:44:08.129Z,62.86
2018-06-14T05:46:35.791Z,63.24
2018-06-14T05:49:03.815Z,63.44
2018-06-14T05:51:31.493Z,63.49
2018-06-14T05:53:59.203Z,63.91
2018-06-14T05:56:26.878Z,63.28
2018-06-14T05:58:54.707Z,63.67
2018-06-14T06:01:22.418Z,63.08
2018-06-14T06:03:50.246Z,63.08
2018-06-14T06:06:17.898Z,63.04
2018-06-14T06:08:45.574Z,63.51
2018-06-14T06:11:13.227Z,63.28
2018-06-14T06:13:40.897Z,63.52
2018-06-14T06:16:08.546Z,63.76
2018-06-14T06:18:36.275Z,63.09
2018-06-14T06:21:03.953Z,63.06
2018-06-14T06:23:31.672Z,63.10
2018-06-14T06:25:59.285Z,63.02
2018-06-14T06:28:26.985Z,62.98
2018-06-14T06:30:54.658Z,63.04
2018-06-14T06:33:22.437Z,63.52
2018-06-14T06:35:50.115Z,63.60
2018-06-14T06:38:17.781Z,62.92
2018-06-14T06:40:45.433Z,62.91
2018-06-14T06:43:13.141Z,62.79
2018-06-14T06:45:40.833Z,62.80
2018-06-14T06:48:08.483Z,62.41
2018-06-14T06:50:36.262Z,62.31
2018-06-14T06:53:03.968Z,62.65
2018-06-14T06:55:31.638Z,62.37
2018-06-14T06:57:59.306Z,62.93
2018-06-14T07:00:27.020Z,63.02
2018-06-14T07:02:54.677Z,62.28
2018-06-14T07:05:22.354Z,62.13
2018-06-14T07:07:49.992Z,62.62
2018-06-14T07:10:17.698Z,62.15
2018-06-14T07:12:45.353Z,62.29
2018-06-14T07:15:19.685Z,62.33
2018-06-14T07:17:47.342Z,62.15
2018-06-14T07:20:15.010Z,62.37
2018-06-14T07:22:42.815Z,62.28
2018-06-14T07:25:10.458Z,62.79
2018-06-14T07:27:38.184Z,62.56
2018-06-14T07:30:05.986Z,62.16
2018-06-14T07:32:33.697Z,61.99
2018-06-14T07:35:01.414Z,61.97
2018-06-14T07:37:29.114Z,61.37
2018-06-14T07:39:56.798Z,62.01
2018-06-14T07:42:31.164Z,61.93
2018-06-14T07:44:58.816Z,62.02
2018-06-14T07:47:26.501Z,61.61
2018-06-14T07:49:54.202Z,61.10
2018-06-14T07:52:21.867Z,61.19
2018-06-14T07:54:49.538Z,61.19
2018-06-14T07:57:17.208Z,61.08
2018-06-14T07:59:44.866Z,60.65
2018-06-14T08:02:12.552Z,60.56
2018-06-14T08:04:40.401Z,60.90
2018-06-14T08:07:08.074Z,60.80
2018-06-14T08:09:35.745Z,60.39
2018-06-14T08:12:03.414Z,60.15
2018-06-14T08:14:31.095Z,60.03
2018-06-14T08:16:58.742Z,60.32
2018-06-14T08:19:26.392Z,60.08
2018-06-14T08:21:54.039Z,60.04
2018-06-14T08:24:21.710Z,60.10
2018-06-14T08:26:49.374Z,59.92
2018-06-14T08:29:17.037Z,59.70
2018-06-14T08:31:44.709Z,59.78
2018-06-14T08:34:12.381Z,59.61
2018-06-14T08:36:40.043Z,59.51
2018-06-14T08:39:08.618Z,59.45
2018-06-14T08:41:36.310Z,59.59
2018-06-14T08:44:04.249Z,59.46
2018-06-14T08:46:31.939Z,59.31
2018-06-14T08:48:59.950Z,59.18
2018-06-14T08:51:27.655Z,58.86
2018-06-14T08:53:55.333Z,58.84
2018-06-14T08:56:23.042Z,58.84
2018-06-14T08:58:50.714Z,58.57
2018-06-14T09:01:18.390Z,58.61
2018-06-14T09:03:46.121Z,58.69
2018-06-14T09:06:13.810Z,58.64
2018-06-14T09:08:41.481Z,58.56
2018-06-14T09:11:09.198Z,58.78
2018-06-14T09:13:36.875Z,58.89
2018-06-14T09:16:04.542Z,58.60
2018-06-14T09:18:32.239Z,58.41
2018-06-14T09:20:59.918Z,58.34
2018-06-14T09:23:27.613Z,58.31
2018-06-14T09:25:55.295Z,58.65
2018-06-14T09:28:22.966Z,58.27
2018-06-14T09:30:50.666Z,58.23
2018-06-14T09:33:18.354Z,58.08
2018-06-14T09:35:46.093Z,57.92
2018-06-14T09:38:13.814Z,57.99
2018-06-14T09:40:41.834Z,57.85
2018-06-14T09:43:09.518Z,58.03
2018-06-14T09:45:37.276Z,57.95
2018-06-14T09:48:05.114Z,58.05
2018-06-14T09:50:32.861Z,57.96
2018-06-14T09:53:00.583Z,57.86
2018-06-14T09:55:28.447Z,57.69
2018-06-14T09:57:56.241Z,57.58
2018-06-14T10:00:23.986Z,57.33
2018-06-14T10:02:51.621Z,57.62
2018-06-14T10:05:19.364Z,57.48
2018-06-14T10:07:47.046Z,57.18
2018-06-14T10:10:14.727Z,57.73
2018-06-14T10:12:42.414Z,57.39
2018-06-14T10:15:10.082Z,57.43
2018-06-14T10:17:37.764Z,57.94
2018-06-14T10:20:05.441Z,57.81
2018-06-14T10:22:33.126Z,57.73
2018-06-14T10:25:00.793Z,57.63
2018-06-14T10:27:28.470Z,57.27
2018-06-14T10:29:56.137Z,57.06
2018-06-14T10:32:23.812Z,56.95
2018-06-14T10:34:51.465Z,57.00
2018-06-14T10:37:19.218Z,56.78
2018-06-14T10:39:46.862Z,56.55
2018-06-14T10:42:14.829Z,56.53
2018-06-14T10:44:42.494Z,56.35
2018-06-14T10:47:10.238Z,56.38
2018-06-14T10:49:37.901Z,56.37
2018-06-14T10:52:05.592Z,56.23
2018-06-14T10:54:33.412Z,56.39
2018-06-14T10:57:01.090Z,56.19
2018-06-14T10:59:28.854Z,56.12
2018-06-14T11:01:56.502Z,56.08
2018-06-14T11:04:24.169Z,56.12
2018-06-14T11:06:51.838Z,56.04
2018-06-14T11:09:19.671Z,56.03
2018-06-14T11:11:47.442Z,55.77
2018-06-14T11:14:15.121Z,55.60
2018-06-14T11:16:42.847Z,55.49
2018-06-14T11:19:10.501Z,55.31
2018-06-14T11:21:38.186Z,55.39
2018-06-14T11:24:05.838Z,55.39
2018-06-14T11:26:33.505Z,55.41
2018-06-14T11:29:01.166Z,55.48
2018-06-14T11:31:28.881Z,55.28
2018-06-14T11:33:56.529Z,55.29
2018-06-14T11:36:24.196Z,55.21
2018-06-14T11:38:51.873Z,55.21
2018-06-14T11:41:19.570Z,55.07
2018-06-14T11:43:47.248Z,55.08
2018-06-14T11:46:15.299Z,55.19
2018-06-14T11:48:42.978Z,55.03
2018-06-14T11:51:10.618Z,54.91
2018-06-14T11:53:38.308Z,54.89
2018-06-14T11:56:06.001Z,54.79
2018-06-14T11:58:33.670Z,54.85
2018-06-14T12:01:01.367Z,54.88
2018-06-14T12:03:29.045Z,54.70
2018-06-14T12:05:56.722Z,54.52
2018-06-14T12:08:24.636Z,54.46
2018-06-14T12:10:52.378Z,54.56
2018-06-14T12:13:20.056Z,54.41
2018-06-14T12:15:47.746Z,54.52
2018-06-14T12:18:15.414Z,54.44
2018-06-14T12:20:43.096Z,54.59
2018-06-14T12:23:10.802Z,54.42
2018-06-14T12:25:38.498Z,54.51
2018-06-14T12:28:06.242Z,54.27
2018-06-14T12:30:33.950Z,54.17
2018-06-14T12:33:01.747Z,54.11
2018-06-14T12:35:29.402Z,54.04
2018-06-14T12:37:57.085Z,53.95
2018-06-14T12:40:24.778Z,54.07
2018-06-14T12:42:52.440Z,54.15
2018-06-14T12:45:20.206Z,53.91
2018-06-14T12:47:47.893Z,53.94
2018-06-14T12:50:15.584Z,53.89
2018-06-14T12:52:43.293Z,53.56
2018-06-14T12:55:10.978Z,53.57
2018-06-14T12:57:38.638Z,53.47
2018-06-14T13:00:06.341Z,53.30
2018-06-14T13:02:34.070Z,52.98
2018-06-14T13:05:01.763Z,53.35
2018-06-14T13:07:29.462Z,53.30
2018-06-14T13:09:57.109Z,53.32
2018-06-14T13:12:24.785Z,53.22
2018-06-14T13:14:52.478Z,53.27
2018-06-14T13:17:20.166Z,53.28
2018-06-14T13:19:47.825Z,53.21
2018-06-14T13:22:15.730Z,53.12
2018-06-14T13:24:44.016Z,53.27
2018-06-14T13:27:12.914Z,53.31
2018-06-14T13:29:40.897Z,53.31
2018-06-14T13:32:08.656Z,53.15
2018-06-14T13:34:36.621Z,53.15
2018-06-14T13:37:04.690Z,52.95
2018-06-14T13:39:32.378Z,52.97
2018-06-14T13:42:00.118Z,52.88
2018-06-14T13:44:27.870Z,52.69
2018-06-14T13:46:55.582Z,52.65
2018-06-14T13:49:23.305Z,52.57
2018-06-14T13:51:50.974Z,52.55
2018-06-14T13:54:18.639Z,52.47
2018-06-14T13:56:46.414Z,52.25
2018-06-14T13:59:14.125Z,52.28
2018-06-14T14:01:41.789Z,52.33
2018-06-14T14:04:09.477Z,52.06
2018-06-14T14:06:37.167Z,52.31
2018-06-14T14:09:07.705Z,52.39
2018-06-14T14:11:35.370Z,52.33
2018-06-14T14:14:03.050Z,52.41
2018-06-14T14:16:30.730Z,52.45
2018-06-14T14:18:58.393Z,52.22
2018-06-14T14:21:26.236Z,52.25
2018-06-14T14:23:53.945Z,52.20
2018-06-14T14:26:21.598Z,52.22
2018-06-14T14:28:49.363Z,52.10
2018-06-14T14:31:17.016Z,52.29
2018-06-14T14:33:44.757Z,52.17
2018-06-14T14:36:12.614Z,52.11
2018-06-14T14:38:40.366Z,52.21
2018-06-14T14:41:08.080Z,52.03
2018-06-14T14:43:35.758Z,51.88
2018-06-14T14:46:03.442Z,51.92
2018-06-14T14:48:31.129Z,51.87
2018-06-14T14:50:58.814Z,51.66
2018-06-14T14:53:26.519Z,51.87
2018-06-14T14:55:54.194Z,51.72
2018-06-14T14:58:22.066Z,51.50
2018-06-14T15:00:49.803Z,51.62
2018-06-14T15:03:17.461Z,51.50
2018-06-14T15:05:45.146Z,51.79
2018-06-14T15:08:12.810Z,51.75
2018-06-14T15:10:40.490Z,51.57
2018-06-14T15:13:08.227Z,51.57
2018-06-14T15:15:35.969Z,51.50
2018-06-14T15:18:03.670Z,51.46
2018-06-14T15:20:31.374Z,51.34
2018-06-14T15:22:59.077Z,51.59
2018-06-14T15:25:26.745Z,51.64
2018-06-14T15:27:54.416Z,51.63
2018-06-14T15:30:22.094Z,51.79
2018-06-14T15:32:49.746Z,51.40
2018-06-14T15:35:17.422Z,51.46
2018-06-14T15:37:45.109Z,51.34
2018-06-14T15:40:12.782Z,51.75
2018-06-14T15:42:40.484Z,51.50
2018-06-14T15:45:08.260Z,51.69
2018-06-14T15:47:35.926Z,51.76
2018-06-14T15:50:03.666Z,51.76
2018-06-14T15:52:31.394Z,52.06
2018-06-14T15:55:10.215Z,51.85
2018-06-14T15:57:37.950Z,51.84
2018-06-14T16:00:05.752Z,51.84
2018-06-14T16:02:33.451Z,51.83
2018-06-14T16:05:01.179Z,51.86
2018-06-14T16:07:28.887Z,52.10
2018-06-14T16:09:56.579Z,52.02
2018-06-14T16:12:24.282Z,52.04
2018-06-14T16:14:51.998Z,52.26
2018-06-14T16:17:19.782Z,52.13
2018-06-14T16:19:47.531Z,52.12
2018-06-14T16:22:15.259Z,52.46
2018-06-14T16:27:23.216Z,52.47
2018-06-14T16:29:52.034Z,52.27
2018-06-14T16:32:20.967Z,52.22
2018-06-14T16:34:49.974Z,52.36
2018-06-14T16:37:18.795Z,52.67
2018-06-14T16:39:47.580Z,52.40
2018-06-14T16:42:16.422Z,52.54
2018-06-14T16:44:45.279Z,52.73
2018-06-14T16:47:14.101Z,52.75
2018-06-14T16:49:42.914Z,52.81
2018-06-14T16:52:11.737Z,52.71
2018-06-14T16:54:40.528Z,53.04
2018-06-14T16:57:09.312Z,52.91
2018-06-14T16:59:38.107Z,53.04
2018-06-14T17:02:06.873Z,52.86
2018-06-14T17:04:35.670Z,53.13
2018-06-14T17:07:04.422Z,53.25
2018-06-14T17:09:33.206Z,53.22
2018-06-14T17:12:02.036Z,53.19
2018-06-14T17:14:30.810Z,53.36
2018-06-14T17:16:59.606Z,53.50
2018-06-14T17:19:28.414Z,53.30
2018-06-14T17:21:57.171Z,53.39
2018-06-14T17:24:25.954Z,53.24
2018-06-14T17:26:54.736Z,53.44
2018-06-14T17:29:23.476Z,53.84
2018-06-14T17:31:52.249Z,52.64
2018-06-14T17:34:21.191Z,51.51
2018-06-14T17:36:49.998Z,50.85
2018-06-14T17:39:18.753Z,52.34
2018-06-14T17:41:47.534Z,52.19
2018-06-14T17:44:16.322Z,52.67
2018-06-14T17:46:45.067Z,51.76
2018-06-14T17:49:14.020Z,51.24
2018-06-14T17:51:42.790Z,47.95
2018-06-14T17:54:11.669Z,48.29
2018-06-14T17:56:40.453Z,47.68
2018-06-14T17:59:09.238Z,47.88
2018-06-14T18:01:38.145Z,47.50
2018-06-14T18:04:06.921Z,46.38
2018-06-14T18:06:35.682Z,46.97
2018-06-14T18:09:06.297Z,46.14
2018-06-14T18:11:35.073Z,44.64
2018-06-14T18:14:04.435Z,43.97
2018-06-14T18:16:33.237Z,45.58
2018-06-14T18:19:02.027Z,45.23
2018-06-14T18:21:30.958Z,44.90
2018-06-14T18:23:59.726Z,44.46
2018-06-14T18:26:28.518Z,44.87
2018-06-14T18:28:57.315Z,44.48
2018-06-14T18:31:26.078Z,44.58
2018-06-14T18:33:55.165Z,44.08
2018-06-14T18:36:23.986Z,43.90
2018-06-14T18:38:52.784Z,43.92
2018-06-14T18:41:21.559Z,43.70
2018-06-14T18:43:50.380Z,44.24
2018-06-14T18:46:19.188Z,44.20
2018-06-14T18:48:47.966Z,43.54
2018-06-14T18:51:16.739Z,44.15
2018-06-14T18:53:45.481Z,44.29
2018-06-14T18:56:14.307Z,43.96
2018-06-14T18:58:43.163Z,44.51
2018-06-14T19:01:11.965Z,44.37
2018-06-14T19:03:40.740Z,44.37
2018-06-14T19:06:09.518Z,44.15
2018-06-14T19:08:38.298Z,44.13
2018-06-14T19:11:07.629Z,44.28
2018-06-14T19:13:36.438Z,44.19
2018-06-14T19:16:05.265Z,44.42
2018-06-14T19:18:34.073Z,43.99
2018-06-14T19:21:02.870Z,44.22
2018-06-14T19:23:31.676Z,44.50
2018-06-14T19:26:00.444Z,44.25
2018-06-14T19:28:29.231Z,44.38
2018-06-14T19:30:58.000Z,44.63
2018-06-14T19:33:26.785Z,44.77
2018-06-14T19:35:55.597Z,44.61
2018-06-14T19:38:24.362Z,44.61
2018-06-14T19:40:53.172Z,44.52
2018-06-14T19:43:22.038Z,44.81
2018-06-14T19:45:50.886Z,44.83
2018-06-14T19:48:19.639Z,44.82
2018-06-14T19:50:48.440Z,44.90
2018-06-14T19:53:17.213Z,45.08
2018-06-14T19:55:46.059Z,45.05
2018-06-14T19:58:14.866Z,44.94
2018-06-14T20:00:43.624Z,45.08
2018-06-14T20:03:12.356Z,45.47
2018-06-14T20:05:41.121Z,45.51
2018-06-14T20:08:09.885Z,45.50
2018-06-14T20:10:38.702Z,45.64
2018-06-14T20:13:07.482Z,45.84
2018-06-14T20:15:36.280Z,45.80
2018-06-14T20:18:05.110Z,45.78
2018-06-14T20:20:33.921Z,46.31
2018-06-14T20:23:02.723Z,46.22
2018-06-14T20:25:31.674Z,46.44
2018-06-14T20:28:00.414Z,46.35
2018-06-14T20:30:29.199Z,46.63
2018-06-14T20:32:57.985Z,46.49
2018-06-14T20:35:26.788Z,46.70
2018-06-14T20:37:55.542Z,46.79
2018-06-14T20:40:24.314Z,46.95
2018-06-14T20:42:53.109Z,46.55
2018-06-14T20:45:21.865Z,47.06
2018-06-14T20:47:51.374Z,46.97
2018-06-14T20:50:20.150Z,46.93
2018-06-14T20:52:48.922Z,47.09
2018-06-14T20:55:17.665Z,46.83
2018-06-14T20:57:46.434Z,47.58
2018-06-14T21:00:15.179Z,47.47
2018-06-14T21:02:43.962Z,47.32
2018-06-14T21:05:12.739Z,47.16
2018-06-14T21:07:41.514Z,47.05
2018-06-14T21:10:10.290Z,47.45
2018-06-14T21:12:39.061Z,47.28
2018-06-14T21:15:07.860Z,47.39
2018-06-14T21:17:36.668Z,47.67
2018-06-14T21:20:05.445Z,48.02
2018-06-14T21:22:34.192Z,47.74
2018-06-14T21:25:02.972Z,47.83
2018-06-14T21:27:31.766Z,48.10
2018-06-14T21:30:00.513Z,47.88
2018-06-14T21:32:29.307Z,47.96
2018-06-14T21:34:58.056Z,47.77
2018-06-14T21:37:26.807Z,47.61
2018-06-14T21:39:55.617Z,47.92
2018-06-14T21:42:24.484Z,48.13
2018-06-14T21:44:53.269Z,48.38
2018-06-14T21:47:22.096Z,48.52
2018-06-14T21:49:50.862Z,48.42
2018-06-14T21:52:19.633Z,48.32
2018-06-14T21:54:48.432Z,48.61
2018-06-14T21:57:17.231Z,48.66
2018-06-14T21:59:46.006Z,49.46
2018-06-14T22:02:14.838Z,48.88
2018-06-14T22:04:43.586Z,49.31
2018-06-14T22:07:14.362Z,49.53
2018-06-14T22:09:44.060Z,49.51
2018-06-14T22:12:13.298Z,50.10
2018-06-14T22:14:42.278Z,49.74
2018-06-14T22:17:11.780Z,49.64
2018-06-14T22:19:40.793Z,49.50
2018-06-14T22:22:09.667Z,50.04
2018-06-14T22:24:38.631Z,49.99
2018-06-14T22:27:07.511Z,50.13
2018-06-14T22:29:36.380Z,50.20
2018-06-14T22:32:05.399Z,50.28
2018-06-14T22:34:45.130Z,51.44
2018-06-14T22:37:14.059Z,51.70
2018-06-14T22:39:42.902Z,51.76
2018-06-14T22:42:11.774Z,52.35
2018-06-14T22:44:40.635Z,54.36
2018-06-14T22:47:09.473Z,54.24
2018-06-14T22:49:38.326Z,54.69
2018-06-14T22:53:10.903Z,55.76
2018-06-14T22:55:39.814Z,56.03
2018-06-14T22:58:08.652Z,55.27
2018-06-14T23:01:32.952Z,56.70
2018-06-14T23:04:02.336Z,56.42
2018-06-14T23:06:31.244Z,55.80
2018-06-14T23:09:01.120Z,56.15
2018-06-14T23:11:30.011Z,56.45
2018-06-14T23:13:58.872Z,56.33
2018-06-14T23:16:27.658Z,56.85
2018-06-14T23:18:56.422Z,56.98
2018-06-14T23:21:25.178Z,56.47
2018-06-14T23:23:54.145Z,57.02
2018-06-14T23:26:22.923Z,56.15
2018-06-14T23:28:51.697Z,56.25
2018-06-14T23:31:20.470Z,57.15
2018-06-14T23:33:49.214Z,56.71
2018-06-14T23:36:17.957Z,56.25
2018-06-14T23:38:46.866Z,56.69
2018-06-14T23:41:15.637Z,56.47
2018-06-14T23:43:44.408Z,56.93
2018-06-14T23:46:13.209Z,57.11
2018-06-14T23:48:42.005Z,56.29
2018-06-14T23:51:10.774Z,56.13
2018-06-14T23:53:39.574Z,57.06
2018-06-14T23:56:08.348Z,57.21
2018-06-14T23:58:37.114Z,56.41
